sensor_id;sensor_type;location;lat;lon;timestamp;P1;durP1;ratioP1;P2;durP2;ratioP2
77864;SDS011;67061;48.524;9.040;2023-06-26T00:01:29;8.30;;;5.90;;
77864;SDS011;67061;48.524;9.040;2023-06-26T00:03:57;10.18;;;6.18;;
77864;SDS011;67061;48.524;9.040;2023-06-26T00:06:24;8.13;;;6.03;;
77864;SDS011;67061;48.524;9.040;2023-06-26T00:08:51;7.97;;;6.32;;
77864;SDS011;67061;48.524;9.040;2023-06-26T00:11:19;8.55;;;5.95;;
77864;SDS011;67061;48.524;9.040;2023-06-26T00:13:45;7.45;;;5.78;;
77864;SDS011;67061;48.524;9.040;2023-06-26T00:16:14;8.90;;;6.43;;
77864;SDS011;67061;48.524;9.040;2023-06-26T00:18:41;8.07;;;6.38;;
77864;SDS011;67061;48.524;9.040;2023-06-26T00:21:08;7.90;;;5.88;;
77864;SDS011;67061;48.524;9.040;2023-06-26T00:23:35;8.48;;;6.00;;
77864;SDS011;67061;48.524;9.040;2023-06-26T00:26:02;11.05;;;8.20;;
77864;SDS011;67061;48.524;9.040;2023-06-26T00:28:30;8.32;;;6.10;;
77864;SDS011;67061;48.524;9.040;2023-06-26T00:30:57;9.10;;;6.60;;
77864;SDS011;67061;48.524;9.040;2023-06-26T00:33:25;9.73;;;6.47;;
77864;SDS011;67061;48.524;9.040;2023-06-26T00:35:52;10.38;;;6.70;;
77864;SDS011;67061;48.524;9.040;2023-06-26T00:38:19;9.50;;;6.45;;
77864;SDS011;67061;48.524;9.040;2023-06-26T00:40:46;8.45;;;6.43;;
77864;SDS011;67061;48.524;9.040;2023-06-26T00:43:13;8.57;;;6.50;;
77864;SDS011;67061;48.524;9.040;2023-06-26T00:45:40;9.45;;;6.85;;
77864;SDS011;67061;48.524;9.040;2023-06-26T00:48:07;8.00;;;6.25;;
77864;SDS011;67061;48.524;9.040;2023-06-26T00:50:38;8.35;;;6.40;;
77864;SDS011;67061;48.524;9.040;2023-06-26T00:53:05;8.60;;;6.50;;
77864;SDS011;67061;48.524;9.040;2023-06-26T00:55:32;9.65;;;7.50;;
77864;SDS011;67061;48.524;9.040;2023-06-26T00:57:59;9.82;;;6.50;;
77864;SDS011;67061;48.524;9.040;2023-06-26T01:00:26;8.77;;;6.28;;
77864;SDS011;67061;48.524;9.040;2023-06-26T01:02:53;8.95;;;6.25;;
77864;SDS011;67061;48.524;9.040;2023-06-26T01:05:21;8.52;;;6.07;;
77864;SDS011;67061;48.524;9.040;2023-06-26T01:07:49;9.27;;;6.13;;
77864;SDS011;67061;48.524;9.040;2023-06-26T01:10:16;8.18;;;5.97;;
77864;SDS011;67061;48.524;9.040;2023-06-26T01:12:44;9.48;;;6.20;;
77864;SDS011;67061;48.524;9.040;2023-06-26T01:15:11;8.68;;;5.97;;
77864;SDS011;67061;48.524;9.040;2023-06-26T01:17:38;9.52;;;6.57;;
77864;SDS011;67061;48.524;9.040;2023-06-26T01:20:10;8.63;;;5.82;;
77864;SDS011;67061;48.524;9.040;2023-06-26T01:22:38;8.73;;;6.28;;
77864;SDS011;67061;48.524;9.040;2023-06-26T01:25:17;10.00;;;6.32;;
77864;SDS011;67061;48.524;9.040;2023-06-26T01:27:53;9.50;;;6.88;;
77864;SDS011;67061;48.524;9.040;2023-06-26T01:30:22;10.35;;;6.20;;
77864;SDS011;67061;48.524;9.040;2023-06-26T01:32:50;9.23;;;6.38;;
77864;SDS011;67061;48.524;9.040;2023-06-26T01:35:17;9.43;;;6.88;;
77864;SDS011;67061;48.524;9.040;2023-06-26T01:37:44;8.82;;;6.38;;
77864;SDS011;67061;48.524;9.040;2023-06-26T01:40:11;10.02;;;6.43;;
77864;SDS011;67061;48.524;9.040;2023-06-26T01:42:38;9.60;;;6.80;;
77864;SDS011;67061;48.524;9.040;2023-06-26T01:45:10;11.68;;;6.93;;
77864;SDS011;67061;48.524;9.040;2023-06-26T01:47:41;10.80;;;6.43;;
77864;SDS011;67061;48.524;9.040;2023-06-26T01:50:14;10.88;;;5.93;;
77864;SDS011;67061;48.524;9.040;2023-06-26T01:52:49;8.73;;;5.97;;
77864;SDS011;67061;48.524;9.040;2023-06-26T01:57:51;10.55;;;6.72;;
77864;SDS011;67061;48.524;9.040;2023-06-26T02:00:23;9.45;;;6.57;;
77864;SDS011;67061;48.524;9.040;2023-06-26T02:02:51;8.65;;;5.88;;
77864;SDS011;67061;48.524;9.040;2023-06-26T02:05:18;9.25;;;6.32;;
77864;SDS011;67061;48.524;9.040;2023-06-26T02:07:45;9.20;;;5.90;;
77864;SDS011;67061;48.524;9.040;2023-06-26T02:10:12;8.18;;;6.25;;
77864;SDS011;67061;48.524;9.040;2023-06-26T02:12:39;10.50;;;6.50;;
77864;SDS011;67061;48.524;9.040;2023-06-26T02:15:07;9.45;;;6.72;;
77864;SDS011;67061;48.524;9.040;2023-06-26T02:17:36;10.00;;;6.40;;
77864;SDS011;67061;48.524;9.040;2023-06-26T02:20:03;9.45;;;6.72;;
77864;SDS011;67061;48.524;9.040;2023-06-26T02:22:34;9.70;;;6.53;;
77864;SDS011;67061;48.524;9.040;2023-06-26T02:25:01;10.45;;;6.85;;
77864;SDS011;67061;48.524;9.040;2023-06-26T02:27:28;9.38;;;6.60;;
77864;SDS011;67061;48.524;9.040;2023-06-26T02:29:55;11.85;;;6.80;;
77864;SDS011;67061;48.524;9.040;2023-06-26T02:32:21;9.63;;;6.72;;
77864;SDS011;67061;48.524;9.040;2023-06-26T02:34:50;8.70;;;6.22;;
77864;SDS011;67061;48.524;9.040;2023-06-26T02:37:17;7.93;;;5.88;;
77864;SDS011;67061;48.524;9.040;2023-06-26T02:39:44;10.65;;;6.05;;
77864;SDS011;67061;48.524;9.040;2023-06-26T02:42:11;8.98;;;5.82;;
77864;SDS011;67061;48.524;9.040;2023-06-26T02:44:38;11.95;;;7.60;;
77864;SDS011;67061;48.524;9.040;2023-06-26T02:47:05;10.57;;;7.03;;
77864;SDS011;67061;48.524;9.040;2023-06-26T02:49:32;10.48;;;6.53;;
77864;SDS011;67061;48.524;9.040;2023-06-26T02:52:00;9.90;;;5.65;;
77864;SDS011;67061;48.524;9.040;2023-06-26T02:54:27;11.52;;;6.60;;
77864;SDS011;67061;48.524;9.040;2023-06-26T02:56:54;10.30;;;6.45;;
77864;SDS011;67061;48.524;9.040;2023-06-26T02:59:21;8.88;;;6.68;;
77864;SDS011;67061;48.524;9.040;2023-06-26T03:01:48;12.35;;;6.95;;
77864;SDS011;67061;48.524;9.040;2023-06-26T03:04:15;9.88;;;7.05;;
77864;SDS011;67061;48.524;9.040;2023-06-26T03:06:42;10.07;;;6.60;;
77864;SDS011;67061;48.524;9.040;2023-06-26T03:09:11;9.75;;;6.43;;
77864;SDS011;67061;48.524;9.040;2023-06-26T03:11:38;9.93;;;6.85;;
77864;SDS011;67061;48.524;9.040;2023-06-26T03:14:04;11.27;;;6.65;;
77864;SDS011;67061;48.524;9.040;2023-06-26T03:16:31;13.52;;;6.70;;
77864;SDS011;67061;48.524;9.040;2023-06-26T03:18:58;12.20;;;6.75;;
77864;SDS011;67061;48.524;9.040;2023-06-26T03:21:25;11.25;;;7.40;;
77864;SDS011;67061;48.524;9.040;2023-06-26T03:23:52;12.32;;;6.60;;
77864;SDS011;67061;48.524;9.040;2023-06-26T03:26:20;10.85;;;7.47;;
77864;SDS011;67061;48.524;9.040;2023-06-26T03:28:53;9.43;;;6.30;;
77864;SDS011;67061;48.524;9.040;2023-06-26T03:31:20;11.35;;;7.10;;
77864;SDS011;67061;48.524;9.040;2023-06-26T03:33:47;10.27;;;6.53;;
77864;SDS011;67061;48.524;9.040;2023-06-26T03:36:14;8.30;;;6.50;;
77864;SDS011;67061;48.524;9.040;2023-06-26T03:38:41;10.50;;;6.65;;
77864;SDS011;67061;48.524;9.040;2023-06-26T03:41:07;10.48;;;6.60;;
77864;SDS011;67061;48.524;9.040;2023-06-26T03:43:36;9.70;;;6.28;;
77864;SDS011;67061;48.524;9.040;2023-06-26T03:46:03;11.18;;;6.00;;
77864;SDS011;67061;48.524;9.040;2023-06-26T03:48:29;8.82;;;6.65;;
77864;SDS011;67061;48.524;9.040;2023-06-26T03:50:56;10.07;;;6.78;;
77864;SDS011;67061;48.524;9.040;2023-06-26T03:53:24;10.52;;;6.70;;
77864;SDS011;67061;48.524;9.040;2023-06-26T03:55:50;11.50;;;6.75;;
77864;SDS011;67061;48.524;9.040;2023-06-26T03:58:17;8.32;;;5.60;;
77864;SDS011;67061;48.524;9.040;2023-06-26T04:00:46;12.77;;;6.82;;
77864;SDS011;67061;48.524;9.040;2023-06-26T04:05:40;9.38;;;6.80;;
77864;SDS011;67061;48.524;9.040;2023-06-26T04:08:06;10.48;;;7.43;;
77864;SDS011;67061;48.524;9.040;2023-06-26T04:10:33;10.55;;;7.13;;
77864;SDS011;67061;48.524;9.040;2023-06-26T04:13:01;10.20;;;7.60;;
77864;SDS011;67061;48.524;9.040;2023-06-26T04:15:28;9.80;;;6.18;;
77864;SDS011;67061;48.524;9.040;2023-06-26T04:17:56;10.73;;;6.85;;
77864;SDS011;67061;48.524;9.040;2023-06-26T04:20:23;11.60;;;6.07;;
77864;SDS011;67061;48.524;9.040;2023-06-26T04:22:50;8.80;;;6.35;;
77864;SDS011;67061;48.524;9.040;2023-06-26T04:25:17;10.55;;;7.03;;
77864;SDS011;67061;48.524;9.040;2023-06-26T04:27:44;12.10;;;7.10;;
77864;SDS011;67061;48.524;9.040;2023-06-26T04:30:12;10.13;;;6.75;;
77864;SDS011;67061;48.524;9.040;2023-06-26T04:32:39;11.75;;;7.13;;
77864;SDS011;67061;48.524;9.040;2023-06-26T04:35:07;10.85;;;7.13;;
77864;SDS011;67061;48.524;9.040;2023-06-26T04:37:35;12.80;;;7.53;;
77864;SDS011;67061;48.524;9.040;2023-06-26T04:44:58;12.13;;;6.88;;
77864;SDS011;67061;48.524;9.040;2023-06-26T04:47:27;10.73;;;6.80;;
77864;SDS011;67061;48.524;9.040;2023-06-26T04:49:54;10.27;;;6.97;;
77864;SDS011;67061;48.524;9.040;2023-06-26T04:52:22;9.35;;;6.63;;
77864;SDS011;67061;48.524;9.040;2023-06-26T04:54:49;11.85;;;7.28;;
77864;SDS011;67061;48.524;9.040;2023-06-26T04:57:16;12.45;;;6.75;;
77864;SDS011;67061;48.524;9.040;2023-06-26T04:59:43;10.90;;;7.20;;
77864;SDS011;67061;48.524;9.040;2023-06-26T05:02:10;9.88;;;7.00;;
77864;SDS011;67061;48.524;9.040;2023-06-26T05:04:39;12.13;;;6.80;;
77864;SDS011;67061;48.524;9.040;2023-06-26T05:07:07;11.68;;;7.07;;
77864;SDS011;67061;48.524;9.040;2023-06-26T05:09:35;10.85;;;7.38;;
77864;SDS011;67061;48.524;9.040;2023-06-26T05:12:02;16.30;;;9.20;;
77864;SDS011;67061;48.524;9.040;2023-06-26T05:14:30;14.18;;;6.88;;
77864;SDS011;67061;48.524;9.040;2023-06-26T05:16:57;12.30;;;7.05;;
77864;SDS011;67061;48.524;9.040;2023-06-26T05:19:24;11.27;;;7.22;;
77864;SDS011;67061;48.524;9.040;2023-06-26T05:21:50;9.73;;;7.00;;
77864;SDS011;67061;48.524;9.040;2023-06-26T05:24:18;10.90;;;6.90;;
77864;SDS011;67061;48.524;9.040;2023-06-26T05:26:47;9.43;;;6.78;;
77864;SDS011;67061;48.524;9.040;2023-06-26T05:29:15;12.02;;;6.65;;
77864;SDS011;67061;48.524;9.040;2023-06-26T05:31:42;11.13;;;6.63;;
77864;SDS011;67061;48.524;9.040;2023-06-26T05:34:11;11.82;;;7.20;;
77864;SDS011;67061;48.524;9.040;2023-06-26T05:36:40;9.60;;;6.63;;
77864;SDS011;67061;48.524;9.040;2023-06-26T05:39:08;13.68;;;7.00;;
77864;SDS011;67061;48.524;9.040;2023-06-26T05:41:36;10.73;;;7.35;;
77864;SDS011;67061;48.524;9.040;2023-06-26T05:44:04;12.63;;;6.82;;
77864;SDS011;67061;48.524;9.040;2023-06-26T05:46:31;10.20;;;7.65;;
77864;SDS011;67061;48.524;9.040;2023-06-26T05:48:58;12.45;;;7.55;;
77864;SDS011;67061;48.524;9.040;2023-06-26T05:51:26;9.73;;;7.63;;
77864;SDS011;67061;48.524;9.040;2023-06-26T05:53:53;12.05;;;7.35;;
77864;SDS011;67061;48.524;9.040;2023-06-26T05:56:21;12.02;;;6.93;;
77864;SDS011;67061;48.524;9.040;2023-06-26T05:58:48;10.63;;;7.63;;
77864;SDS011;67061;48.524;9.040;2023-06-26T06:01:18;9.63;;;6.75;;
77864;SDS011;67061;48.524;9.040;2023-06-26T06:03:45;11.15;;;7.22;;
77864;SDS011;67061;48.524;9.040;2023-06-26T06:06:12;12.63;;;6.85;;
77864;SDS011;67061;48.524;9.040;2023-06-26T06:08:39;9.38;;;7.28;;
77864;SDS011;67061;48.524;9.040;2023-06-26T06:11:06;8.13;;;6.80;;
77864;SDS011;67061;48.524;9.040;2023-06-26T06:13:33;10.35;;;7.35;;
77864;SDS011;67061;48.524;9.040;2023-06-26T06:15:59;12.13;;;7.35;;
77864;SDS011;67061;48.524;9.040;2023-06-26T06:18:28;9.02;;;6.43;;
77864;SDS011;67061;48.524;9.040;2023-06-26T06:23:21;9.45;;;6.85;;
77864;SDS011;67061;48.524;9.040;2023-06-26T06:25:49;8.88;;;6.72;;
77864;SDS011;67061;48.524;9.040;2023-06-26T06:28:15;10.13;;;7.20;;
77864;SDS011;67061;48.524;9.040;2023-06-26T06:30:42;9.63;;;7.55;;
77864;SDS011;67061;48.524;9.040;2023-06-26T06:33:09;9.27;;;6.55;;
77864;SDS011;67061;48.524;9.040;2023-06-26T06:35:37;8.38;;;6.65;;
77864;SDS011;67061;48.524;9.040;2023-06-26T06:38:04;7.78;;;6.10;;
77864;SDS011;67061;48.524;9.040;2023-06-26T06:40:31;8.90;;;6.97;;
77864;SDS011;67061;48.524;9.040;2023-06-26T06:42:58;10.15;;;7.20;;
77864;SDS011;67061;48.524;9.040;2023-06-26T06:45:25;8.40;;;6.25;;
77864;SDS011;67061;48.524;9.040;2023-06-26T06:47:52;8.88;;;6.80;;
77864;SDS011;67061;48.524;9.040;2023-06-26T06:50:19;8.82;;;6.93;;
77864;SDS011;67061;48.524;9.040;2023-06-26T06:52:47;8.85;;;6.72;;
77864;SDS011;67061;48.524;9.040;2023-06-26T06:55:14;8.73;;;7.35;;
77864;SDS011;67061;48.524;9.040;2023-06-26T06:57:41;8.48;;;6.55;;
77864;SDS011;67061;48.524;9.040;2023-06-26T07:00:08;10.02;;;6.63;;
77864;SDS011;67061;48.524;9.040;2023-06-26T07:02:37;9.48;;;8.13;;
77864;SDS011;67061;48.524;9.040;2023-06-26T07:05:06;7.70;;;6.25;;
77864;SDS011;67061;48.524;9.040;2023-06-26T07:07:33;10.63;;;6.65;;
77864;SDS011;67061;48.524;9.040;2023-06-26T07:10:03;10.32;;;6.65;;
77864;SDS011;67061;48.524;9.040;2023-06-26T07:12:32;7.68;;;6.00;;
77864;SDS011;67061;48.524;9.040;2023-06-26T07:14:59;9.55;;;6.93;;
77864;SDS011;67061;48.524;9.040;2023-06-26T07:17:27;7.13;;;6.18;;
77864;SDS011;67061;48.524;9.040;2023-06-26T07:19:54;9.43;;;6.95;;
77864;SDS011;67061;48.524;9.040;2023-06-26T07:22:21;8.30;;;6.28;;
77864;SDS011;67061;48.524;9.040;2023-06-26T07:24:48;10.32;;;5.88;;
77864;SDS011;67061;48.524;9.040;2023-06-26T07:27:17;8.57;;;6.25;;
77864;SDS011;67061;48.524;9.040;2023-06-26T07:29:44;7.22;;;6.18;;
77864;SDS011;67061;48.524;9.040;2023-06-26T07:32:11;8.82;;;5.90;;
77864;SDS011;67061;48.524;9.040;2023-06-26T07:34:38;9.20;;;6.38;;
77864;SDS011;67061;48.524;9.040;2023-06-26T07:37:05;9.00;;;5.68;;
77864;SDS011;67061;48.524;9.040;2023-06-26T07:39:33;6.75;;;5.35;;
77864;SDS011;67061;48.524;9.040;2023-06-26T07:42:00;7.75;;;6.55;;
77864;SDS011;67061;48.524;9.040;2023-06-26T07:44:28;7.15;;;5.97;;
77864;SDS011;67061;48.524;9.040;2023-06-26T07:49:22;9.70;;;6.28;;
77864;SDS011;67061;48.524;9.040;2023-06-26T07:51:49;7.15;;;5.65;;
77864;SDS011;67061;48.524;9.040;2023-06-26T07:54:16;15.48;;;6.40;;
77864;SDS011;67061;48.524;9.040;2023-06-26T07:56:52;8.02;;;5.90;;
77864;SDS011;67061;48.524;9.040;2023-06-26T07:59:20;8.43;;;5.40;;
77864;SDS011;67061;48.524;9.040;2023-06-26T08:01:49;8.23;;;5.85;;
77864;SDS011;67061;48.524;9.040;2023-06-26T08:04:17;10.60;;;5.80;;
77864;SDS011;67061;48.524;9.040;2023-06-26T08:06:45;15.05;;;6.45;;
77864;SDS011;67061;48.524;9.040;2023-06-26T08:09:12;7.63;;;5.45;;
77864;SDS011;67061;48.524;9.040;2023-06-26T08:11:39;7.50;;;5.57;;
77864;SDS011;67061;48.524;9.040;2023-06-26T08:14:05;6.95;;;5.65;;
77864;SDS011;67061;48.524;9.040;2023-06-26T08:16:32;5.95;;;5.35;;
77864;SDS011;67061;48.524;9.040;2023-06-26T08:19:01;7.43;;;5.82;;
77864;SDS011;67061;48.524;9.040;2023-06-26T08:21:28;7.72;;;5.65;;
77864;SDS011;67061;48.524;9.040;2023-06-26T08:23:55;6.28;;;5.47;;
77864;SDS011;67061;48.524;9.040;2023-06-26T08:26:22;7.15;;;4.93;;
77864;SDS011;67061;48.524;9.040;2023-06-26T08:28:49;6.35;;;5.43;;
77864;SDS011;67061;48.524;9.040;2023-06-26T08:31:16;5.47;;;4.97;;
77864;SDS011;67061;48.524;9.040;2023-06-26T08:33:43;12.23;;;6.25;;
77864;SDS011;67061;48.524;9.040;2023-06-26T08:36:11;8.23;;;5.68;;
77864;SDS011;67061;48.524;9.040;2023-06-26T08:38:38;7.80;;;5.47;;
77864;SDS011;67061;48.524;9.040;2023-06-26T08:41:06;6.97;;;5.88;;
77864;SDS011;67061;48.524;9.040;2023-06-26T08:43:33;6.63;;;5.40;;
77864;SDS011;67061;48.524;9.040;2023-06-26T08:46:01;7.70;;;6.90;;
77864;SDS011;67061;48.524;9.040;2023-06-26T08:48:29;7.13;;;5.60;;
77864;SDS011;67061;48.524;9.040;2023-06-26T08:50:59;12.63;;;5.57;;
77864;SDS011;67061;48.524;9.040;2023-06-26T08:53:36;11.25;;;6.13;;
77864;SDS011;67061;48.524;9.040;2023-06-26T08:56:07;10.07;;;5.70;;
77864;SDS011;67061;48.524;9.040;2023-06-26T08:58:35;8.20;;;5.32;;
77864;SDS011;67061;48.524;9.040;2023-06-26T09:01:03;9.48;;;5.40;;
77864;SDS011;67061;48.524;9.040;2023-06-26T09:03:31;7.78;;;5.15;;
77864;SDS011;67061;48.524;9.040;2023-06-26T09:05:59;7.28;;;5.20;;
77864;SDS011;67061;48.524;9.040;2023-06-26T09:08:26;5.75;;;4.93;;
77864;SDS011;67061;48.524;9.040;2023-06-26T09:10:54;6.72;;;4.88;;
77864;SDS011;67061;48.524;9.040;2023-06-26T09:13:21;6.00;;;5.15;;
77864;SDS011;67061;48.524;9.040;2023-06-26T09:15:48;5.57;;;4.97;;
77864;SDS011;67061;48.524;9.040;2023-06-26T09:18:16;5.57;;;4.93;;
77864;SDS011;67061;48.524;9.040;2023-06-26T09:20:45;6.60;;;5.22;;
77864;SDS011;67061;48.524;9.040;2023-06-26T09:23:11;7.80;;;5.72;;
77864;SDS011;67061;48.524;9.040;2023-06-26T09:25:39;5.78;;;5.18;;
77864;SDS011;67061;48.524;9.040;2023-06-26T09:28:09;6.50;;;5.10;;
77864;SDS011;67061;48.524;9.040;2023-06-26T09:30:36;5.85;;;5.25;;
77864;SDS011;67061;48.524;9.040;2023-06-26T09:33:12;21.70;;;7.07;;
77864;SDS011;67061;48.524;9.040;2023-06-26T09:35:40;7.57;;;5.63;;
77864;SDS011;67061;48.524;9.040;2023-06-26T09:38:07;19.27;;;6.10;;
77864;SDS011;67061;48.524;9.040;2023-06-26T09:40:34;9.23;;;5.40;;
77864;SDS011;67061;48.524;9.040;2023-06-26T09:43:03;6.82;;;5.47;;
77864;SDS011;67061;48.524;9.040;2023-06-26T09:45:32;6.38;;;5.75;;
77864;SDS011;67061;48.524;9.040;2023-06-26T09:47:59;5.97;;;5.07;;
77864;SDS011;67061;48.524;9.040;2023-06-26T09:50:28;7.97;;;5.53;;
77864;SDS011;67061;48.524;9.040;2023-06-26T09:52:57;13.68;;;5.18;;
77864;SDS011;67061;48.524;9.040;2023-06-26T09:55:24;14.15;;;5.60;;
77864;SDS011;67061;48.524;9.040;2023-06-26T09:57:52;6.93;;;5.38;;
77864;SDS011;67061;48.524;9.040;2023-06-26T10:00:22;7.72;;;5.97;;
77864;SDS011;67061;48.524;9.040;2023-06-26T10:02:51;7.07;;;5.45;;
77864;SDS011;67061;48.524;9.040;2023-06-26T10:05:18;7.60;;;5.20;;
77864;SDS011;67061;48.524;9.040;2023-06-26T10:07:45;10.77;;;5.38;;
77864;SDS011;67061;48.524;9.040;2023-06-26T10:10:13;8.18;;;4.93;;
77864;SDS011;67061;48.524;9.040;2023-06-26T10:12:43;6.40;;;5.32;;
77864;SDS011;67061;48.524;9.040;2023-06-26T10:15:14;5.72;;;5.13;;
77864;SDS011;67061;48.524;9.040;2023-06-26T10:17:42;6.65;;;5.05;;
77864;SDS011;67061;48.524;9.040;2023-06-26T10:20:12;6.10;;;5.15;;
77864;SDS011;67061;48.524;9.040;2023-06-26T10:22:42;6.82;;;5.43;;
77864;SDS011;67061;48.524;9.040;2023-06-26T10:25:12;7.80;;;5.20;;
77864;SDS011;67061;48.524;9.040;2023-06-26T10:27:43;5.72;;;5.00;;
77864;SDS011;67061;48.524;9.040;2023-06-26T10:30:13;6.88;;;5.55;;
77864;SDS011;67061;48.524;9.040;2023-06-26T10:32:44;5.63;;;4.82;;
77864;SDS011;67061;48.524;9.040;2023-06-26T10:35:13;5.70;;;5.00;;
77864;SDS011;67061;48.524;9.040;2023-06-26T10:37:41;8.65;;;5.80;;
77864;SDS011;67061;48.524;9.040;2023-06-26T10:40:10;6.72;;;5.40;;
77864;SDS011;67061;48.524;9.040;2023-06-26T10:42:39;5.68;;;4.60;;
77864;SDS011;67061;48.524;9.040;2023-06-26T10:45:10;9.93;;;5.20;;
77864;SDS011;67061;48.524;9.040;2023-06-26T10:47:40;8.27;;;7.32;;
77864;SDS011;67061;48.524;9.040;2023-06-26T10:50:18;6.57;;;5.70;;
77864;SDS011;67061;48.524;9.040;2023-06-26T10:52:53;7.20;;;6.25;;
77864;SDS011;67061;48.524;9.040;2023-06-26T10:55:34;7.47;;;5.93;;
77864;SDS011;67061;48.524;9.040;2023-06-26T10:58:01;6.65;;;5.95;;
77864;SDS011;67061;48.524;9.040;2023-06-26T11:00:28;6.30;;;5.60;;
77864;SDS011;67061;48.524;9.040;2023-06-26T11:02:55;6.53;;;5.60;;
77864;SDS011;67061;48.524;9.040;2023-06-26T11:05:25;8.48;;;7.57;;
77864;SDS011;67061;48.524;9.040;2023-06-26T11:08:02;7.60;;;5.88;;
77864;SDS011;67061;48.524;9.040;2023-06-26T11:10:39;6.65;;;5.53;;
77864;SDS011;67061;48.524;9.040;2023-06-26T11:13:15;9.02;;;6.15;;
77864;SDS011;67061;48.524;9.040;2023-06-26T11:15:44;8.15;;;5.75;;
77864;SDS011;67061;48.524;9.040;2023-06-26T11:18:12;7.65;;;6.72;;
77864;SDS011;67061;48.524;9.040;2023-06-26T11:20:41;7.38;;;6.40;;
77864;SDS011;67061;48.524;9.040;2023-06-26T11:23:08;9.88;;;6.40;;
77864;SDS011;67061;48.524;9.040;2023-06-26T11:25:36;8.73;;;6.30;;
77864;SDS011;67061;48.524;9.040;2023-06-26T11:28:04;7.15;;;5.90;;
77864;SDS011;67061;48.524;9.040;2023-06-26T11:30:31;10.77;;;6.63;;
77864;SDS011;67061;48.524;9.040;2023-06-26T11:33:05;7.53;;;5.82;;
77864;SDS011;67061;48.524;9.040;2023-06-26T11:35:32;6.75;;;6.05;;
77864;SDS011;67061;48.524;9.040;2023-06-26T11:38:02;6.57;;;5.93;;
77864;SDS011;67061;48.524;9.040;2023-06-26T11:40:30;8.38;;;6.82;;
77864;SDS011;67061;48.524;9.040;2023-06-26T11:42:58;8.25;;;5.93;;
77864;SDS011;67061;48.524;9.040;2023-06-26T11:47:54;8.70;;;7.80;;
77864;SDS011;67061;48.524;9.040;2023-06-26T11:50:22;8.15;;;6.43;;
77864;SDS011;67061;48.524;9.040;2023-06-26T11:52:52;7.05;;;6.20;;
77864;SDS011;67061;48.524;9.040;2023-06-26T11:55:21;7.40;;;6.70;;
77864;SDS011;67061;48.524;9.040;2023-06-26T11:57:48;8.00;;;6.20;;
77864;SDS011;67061;48.524;9.040;2023-06-26T12:00:16;8.32;;;6.30;;
77864;SDS011;67061;48.524;9.040;2023-06-26T12:02:44;8.98;;;6.13;;
77864;SDS011;67061;48.524;9.040;2023-06-26T12:05:11;10.23;;;6.28;;
77864;SDS011;67061;48.524;9.040;2023-06-26T12:07:39;8.68;;;6.35;;
77864;SDS011;67061;48.524;9.040;2023-06-26T12:10:09;8.55;;;7.57;;
77864;SDS011;67061;48.524;9.040;2023-06-26T12:12:38;8.02;;;6.40;;
77864;SDS011;67061;48.524;9.040;2023-06-26T12:15:06;7.57;;;5.97;;
77864;SDS011;67061;48.524;9.040;2023-06-26T12:17:37;9.20;;;5.65;;
77864;SDS011;67061;48.524;9.040;2023-06-26T12:20:05;7.90;;;6.07;;
77864;SDS011;67061;48.524;9.040;2023-06-26T12:22:43;8.82;;;6.68;;
77864;SDS011;67061;48.524;9.040;2023-06-26T12:25:11;7.43;;;6.03;;
77864;SDS011;67061;48.524;9.040;2023-06-26T12:27:40;7.88;;;6.20;;
77864;SDS011;67061;48.524;9.040;2023-06-26T12:30:07;13.80;;;6.55;;
77864;SDS011;67061;48.524;9.040;2023-06-26T12:32:34;6.57;;;5.88;;
77864;SDS011;67061;48.524;9.040;2023-06-26T12:35:01;7.15;;;6.28;;
77864;SDS011;67061;48.524;9.040;2023-06-26T12:37:28;8.68;;;6.22;;
77864;SDS011;67061;48.524;9.040;2023-06-26T12:40:02;7.20;;;5.93;;
77864;SDS011;67061;48.524;9.040;2023-06-26T12:54:52;9.45;;;7.50;;
77864;SDS011;67061;48.524;9.040;2023-06-26T12:57:21;8.10;;;6.50;;
77864;SDS011;67061;48.524;9.040;2023-06-26T12:59:48;7.55;;;6.40;;
77864;SDS011;67061;48.524;9.040;2023-06-26T13:02:15;7.60;;;6.40;;
77864;SDS011;67061;48.524;9.040;2023-06-26T13:04:42;7.93;;;6.55;;
77864;SDS011;67061;48.524;9.040;2023-06-26T13:07:10;10.98;;;6.25;;
77864;SDS011;67061;48.524;9.040;2023-06-26T13:09:37;9.10;;;7.00;;
77864;SDS011;67061;48.524;9.040;2023-06-26T13:12:07;8.82;;;6.60;;
77864;SDS011;67061;48.524;9.040;2023-06-26T13:14:34;7.55;;;6.38;;
77864;SDS011;67061;48.524;9.040;2023-06-26T13:17:01;7.93;;;6.15;;
77864;SDS011;67061;48.524;9.040;2023-06-26T13:19:28;8.73;;;5.93;;
77864;SDS011;67061;48.524;9.040;2023-06-26T13:21:56;7.43;;;5.65;;
77864;SDS011;67061;48.524;9.040;2023-06-26T13:24:25;8.55;;;6.55;;
77864;SDS011;67061;48.524;9.040;2023-06-26T13:26:52;11.32;;;6.28;;
77864;SDS011;67061;48.524;9.040;2023-06-26T13:29:20;7.68;;;5.85;;
77864;SDS011;67061;48.524;9.040;2023-06-26T13:31:47;8.88;;;6.28;;
77864;SDS011;67061;48.524;9.040;2023-06-26T13:34:21;6.78;;;6.07;;
77864;SDS011;67061;48.524;9.040;2023-06-26T13:36:48;7.00;;;6.20;;
77864;SDS011;67061;48.524;9.040;2023-06-26T13:39:15;8.02;;;6.55;;
77864;SDS011;67061;48.524;9.040;2023-06-26T13:41:42;8.10;;;6.38;;
77864;SDS011;67061;48.524;9.040;2023-06-26T13:44:09;9.65;;;6.00;;
77864;SDS011;67061;48.524;9.040;2023-06-26T13:46:37;8.82;;;6.72;;
77864;SDS011;67061;48.524;9.040;2023-06-26T13:49:04;9.27;;;6.60;;
77864;SDS011;67061;48.524;9.040;2023-06-26T13:51:31;9.77;;;6.45;;
77864;SDS011;67061;48.524;9.040;2023-06-26T13:53:58;9.18;;;5.80;;
77864;SDS011;67061;48.524;9.040;2023-06-26T13:56:25;8.95;;;5.70;;
77864;SDS011;67061;48.524;9.040;2023-06-26T13:58:55;8.18;;;5.65;;
77864;SDS011;67061;48.524;9.040;2023-06-26T14:01:23;7.60;;;6.28;;
77864;SDS011;67061;48.524;9.040;2023-06-26T14:03:51;8.32;;;5.95;;
77864;SDS011;67061;48.524;9.040;2023-06-26T14:06:18;7.30;;;5.88;;
77864;SDS011;67061;48.524;9.040;2023-06-26T14:08:45;7.30;;;5.85;;
77864;SDS011;67061;48.524;9.040;2023-06-26T14:11:12;9.02;;;6.30;;
77864;SDS011;67061;48.524;9.040;2023-06-26T14:13:40;7.35;;;5.75;;
77864;SDS011;67061;48.524;9.040;2023-06-26T14:16:07;7.28;;;5.82;;
77864;SDS011;67061;48.524;9.040;2023-06-26T14:18:34;6.60;;;5.47;;
77864;SDS011;67061;48.524;9.040;2023-06-26T14:21:03;7.38;;;5.90;;
77864;SDS011;67061;48.524;9.040;2023-06-26T14:23:30;6.40;;;5.57;;
77864;SDS011;67061;48.524;9.040;2023-06-26T14:25:56;7.53;;;5.50;;
77864;SDS011;67061;48.524;9.040;2023-06-26T14:28:23;7.32;;;5.30;;
77864;SDS011;67061;48.524;9.040;2023-06-26T14:30:50;6.35;;;4.93;;
77864;SDS011;67061;48.524;9.040;2023-06-26T14:33:17;6.45;;;4.30;;
77864;SDS011;67061;48.524;9.040;2023-06-26T14:35:44;8.35;;;5.78;;
77864;SDS011;67061;48.524;9.040;2023-06-26T14:38:12;6.13;;;4.75;;
77864;SDS011;67061;48.524;9.040;2023-06-26T14:40:39;7.65;;;4.93;;
77864;SDS011;67061;48.524;9.040;2023-06-26T14:43:06;8.10;;;4.82;;
77864;SDS011;67061;48.524;9.040;2023-06-26T14:45:33;5.68;;;4.95;;
77864;SDS011;67061;48.524;9.040;2023-06-26T14:47:59;7.18;;;5.05;;
77864;SDS011;67061;48.524;9.040;2023-06-26T14:50:26;5.55;;;4.50;;
77864;SDS011;67061;48.524;9.040;2023-06-26T14:52:53;8.07;;;4.45;;
77864;SDS011;67061;48.524;9.040;2023-06-26T14:55:21;5.07;;;4.15;;
77864;SDS011;67061;48.524;9.040;2023-06-26T14:57:48;5.10;;;4.60;;
77864;SDS011;67061;48.524;9.040;2023-06-26T15:00:16;6.72;;;4.28;;
77864;SDS011;67061;48.524;9.040;2023-06-26T15:02:43;6.75;;;4.07;;
77864;SDS011;67061;48.524;9.040;2023-06-26T15:05:10;6.05;;;3.83;;
77864;SDS011;67061;48.524;9.040;2023-06-26T15:07:37;7.00;;;3.78;;
77864;SDS011;67061;48.524;9.040;2023-06-26T15:10:04;7.18;;;3.95;;
77864;SDS011;67061;48.524;9.040;2023-06-26T15:12:33;6.65;;;3.60;;
77864;SDS011;67061;48.524;9.040;2023-06-26T15:15:00;7.85;;;4.30;;
77864;SDS011;67061;48.524;9.040;2023-06-26T15:17:27;6.22;;;4.20;;